createdAt,value
2018-09-22T00:00:35.297Z,3.67
2018-09-22T00:03:03.741Z,3.53
2018-09-22T00:05:32.288Z,3.17
2018-09-22T00:08:00.731Z,3.33
2018-09-22T00:10:29.206Z,3.70
2018-09-22T00:12:57.655Z,2.70
2018-09-22T00:15:26.143Z,3.37
2018-09-22T00:17:54.605Z,3.00
2018-09-22T00:20:23.077Z,3.17
2018-09-22T00:22:51.646Z,3.27
2018-09-22T00:25:20.114Z,3.80
2018-09-22T00:27:48.574Z,3.17
2018-09-22T00:30:17.050Z,2.77
2018-09-22T00:32:45.498Z,2.43
2018-09-22T00:35:13.926Z,3.20
2018-09-22T00:37:42.375Z,3.10
2018-09-22T00:40:10.905Z,3.73
2018-09-22T00:42:39.337Z,3.00
2018-09-22T00:45:07.899Z,3.03
2018-09-22T00:47:36.353Z,3.17
2018-09-22T00:50:04.842Z,3.53
2018-09-22T00:52:33.318Z,3.37
2018-09-22T00:55:01.767Z,3.30
2018-09-22T00:57:30.242Z,3.07
2018-09-22T00:59:58.655Z,3.20
2018-09-22T01:02:27.120Z,3.10
2018-09-22T01:04:55.525Z,3.07
2018-09-22T01:07:23.953Z,2.80
2018-09-22T01:09:52.415Z,2.67
2018-09-22T01:12:20.896Z,2.90
2018-09-22T01:14:49.329Z,3.53
2018-09-22T01:17:17.811Z,3.30
2018-09-22T01:19:46.263Z,3.10
2018-09-22T01:22:14.697Z,3.00
2018-09-22T01:24:43.260Z,3.33
2018-09-22T01:27:11.679Z,3.40
2018-09-22T01:29:40.119Z,3.87
2018-09-22T01:32:08.590Z,3.60
2018-09-22T01:34:37.182Z,3.17
2018-09-22T01:37:05.635Z,3.17
2018-09-22T01:39:34.082Z,2.83
2018-09-22T01:42:02.634Z,3.40
2018-09-22T01:44:31.060Z,3.20
2018-09-22T01:46:59.506Z,3.07
2018-09-22T01:49:27.927Z,2.90
2018-09-22T01:51:56.334Z,3.17
2018-09-22T01:54:25.350Z,2.90
2018-09-22T01:56:53.778Z,2.60
2018-09-22T01:59:22.194Z,2.83
2018-09-22T02:01:50.682Z,2.70
2018-09-22T02:04:19.133Z,2.77
2018-09-22T02:06:47.656Z,2.63
2018-09-22T02:09:16.102Z,3.37
2018-09-22T02:11:45.494Z,3.40
2018-09-22T02:14:13.964Z,2.93
2018-09-22T02:16:42.408Z,2.43
2018-09-22T02:19:10.927Z,3.10
2018-09-22T02:21:39.341Z,2.73
2018-09-22T02:24:07.778Z,3.20
2018-09-22T02:26:36.219Z,3.00
2018-09-22T02:29:04.693Z,2.97
2018-09-22T02:31:33.374Z,3.07
2018-09-22T02:34:01.823Z,3.13
2018-09-22T02:36:30.296Z,3.23
2018-09-22T02:38:58.748Z,2.30
2018-09-22T02:41:27.214Z,2.83
2018-09-22T02:43:55.647Z,3.23
2018-09-22T02:46:24.106Z,2.90
2018-09-22T02:48:52.618Z,3.17
2018-09-22T02:51:21.029Z,2.50
2018-09-22T02:53:49.550Z,3.20
2018-09-22T02:56:17.989Z,3.70
2018-09-22T02:58:46.401Z,3.13
2018-09-22T03:01:14.851Z,3.67
2018-09-22T03:03:43.316Z,3.70
2018-09-22T03:06:12.032Z,3.00
2018-09-22T03:08:40.564Z,3.37
2018-09-22T03:11:09.007Z,2.43
2018-09-22T03:13:37.482Z,3.50
2018-09-22T03:16:05.987Z,3.80
2018-09-22T03:18:34.438Z,3.10
2018-09-22T03:21:02.897Z,3.03
2018-09-22T03:23:31.360Z,3.23
2018-09-22T03:25:59.852Z,3.40
2018-09-22T03:28:28.285Z,3.87
2018-09-22T03:30:56.815Z,3.60
2018-09-22T03:33:25.307Z,3.00
2018-09-22T03:35:53.827Z,3.10
2018-09-22T03:38:22.290Z,2.93
2018-09-22T03:40:50.744Z,3.17
2018-09-22T03:43:19.173Z,3.40
2018-09-22T03:45:47.655Z,3.33
2018-09-22T03:48:16.118Z,3.13
2018-09-22T03:50:44.591Z,2.67
2018-09-22T03:53:13.127Z,3.13
2018-09-22T03:55:41.731Z,3.20
2018-09-22T03:58:10.144Z,3.37
2018-09-22T04:00:38.629Z,3.20
2018-09-22T04:03:07.194Z,3.50
2018-09-22T04:05:35.633Z,3.10
2018-09-22T04:08:04.121Z,2.87
2018-09-22T04:10:32.658Z,2.97
2018-09-22T04:13:01.093Z,2.90
2018-09-22T04:15:29.598Z,2.87
2018-09-22T04:17:58.041Z,3.10
2018-09-22T04:20:26.691Z,2.97
2018-09-22T04:22:55.268Z,2.97
2018-09-22T04:25:23.717Z,3.10
2018-09-22T04:27:52.164Z,2.97
2018-09-22T04:30:21.232Z,3.40
2018-09-22T04:32:49.657Z,3.37
2018-09-22T04:35:18.100Z,3.43
2018-09-22T04:37:46.538Z,3.40
2018-09-22T04:40:14.997Z,3.60
2018-09-22T04:42:43.427Z,3.30
2018-09-22T04:45:11.943Z,2.97
2018-09-22T04:47:40.392Z,2.90
2018-09-22T04:50:08.845Z,3.10
2018-09-22T04:52:37.386Z,4.17
2018-09-22T04:55:06.089Z,3.00
2018-09-22T04:57:34.503Z,3.47
2018-09-22T05:00:03.098Z,2.80
2018-09-22T05:02:31.533Z,3.63
2018-09-22T05:04:59.976Z,3.40
2018-09-22T05:07:28.442Z,3.17
2018-09-22T05:09:56.905Z,3.73
2018-09-22T05:12:25.632Z,3.70
2018-09-22T05:14:54.218Z,3.33
2018-09-22T05:17:22.775Z,2.90
2018-09-22T05:19:51.402Z,3.57
2018-09-22T05:22:19.833Z,3.80
2018-09-22T05:24:48.387Z,3.80
2018-09-22T05:27:16.902Z,3.77
2018-09-22T05:29:45.846Z,3.93
2018-09-22T05:32:14.337Z,3.70
2018-09-22T05:34:42.796Z,3.17
2018-09-22T05:37:11.372Z,3.37
2018-09-22T05:39:39.824Z,3.33
2018-09-22T05:42:08.436Z,3.43
2018-09-22T05:44:37.046Z,3.03
2018-09-22T05:47:05.781Z,3.37
2018-09-22T05:49:34.243Z,3.53
2018-09-22T05:52:02.679Z,3.23
2018-09-22T05:54:31.227Z,3.23
2018-09-22T05:56:59.742Z,3.00
2018-09-22T05:59:28.310Z,4.43
2018-09-22T06:01:56.762Z,3.50
2018-09-22T06:04:25.226Z,3.60
2018-09-22T06:06:53.683Z,3.60
2018-09-22T06:09:22.173Z,3.37
2018-09-22T06:11:50.651Z,3.47
2018-09-22T06:14:19.101Z,3.50
2018-09-22T06:16:48.231Z,3.83
2018-09-22T06:19:16.653Z,3.47
2018-09-22T06:21:45.161Z,3.90
2018-09-22T06:24:13.674Z,3.20
2018-09-22T06:26:42.163Z,2.87
2018-09-22T06:29:10.667Z,3.73
2018-09-22T06:31:39.163Z,2.97
2018-09-22T06:34:07.610Z,2.83
2018-09-22T06:36:36.205Z,3.07
2018-09-22T06:39:07.295Z,3.50
2018-09-22T06:41:35.770Z,3.37
2018-09-22T06:44:04.285Z,3.20
2018-09-22T06:46:32.838Z,2.83
2018-09-22T06:49:01.291Z,3.40
2018-09-22T06:51:36.356Z,3.37
2018-09-22T06:54:04.852Z,2.90
2018-09-22T06:56:33.421Z,3.33
2018-09-22T06:59:01.940Z,3.20
2018-09-22T07:01:30.437Z,2.77
2018-09-22T07:03:58.903Z,3.30
2018-09-22T07:06:27.666Z,3.20
2018-09-22T07:08:56.146Z,3.10
2018-09-22T07:11:24.629Z,3.63
2018-09-22T07:13:53.182Z,2.90
2018-09-22T07:16:22.693Z,2.90
2018-09-22T07:18:51.179Z,3.33
2018-09-22T07:21:23.866Z,2.93
2018-09-22T07:23:52.507Z,3.23
2018-09-22T07:26:21.673Z,3.20
2018-09-22T07:28:50.176Z,3.13
2018-09-22T07:31:18.634Z,2.93
2018-09-22T07:33:47.089Z,4.13
2018-09-22T07:36:15.567Z,3.00
2018-09-22T07:38:44.090Z,3.30
2018-09-22T07:41:12.611Z,2.67
2018-09-22T07:43:41.104Z,3.03
2018-09-22T07:46:09.543Z,2.70
2018-09-22T07:48:38.022Z,2.87
2018-09-22T07:51:06.513Z,3.20
2018-09-22T07:53:34.977Z,3.20
2018-09-22T07:56:03.455Z,3.23
2018-09-22T07:58:31.933Z,3.07
2018-09-22T08:01:00.408Z,3.10
2018-09-22T08:03:28.931Z,3.20
2018-09-22T08:05:57.389Z,2.80
2018-09-22T08:09:11.505Z,2.93
2018-09-22T08:12:02.262Z,3.40
2018-09-22T08:14:35.472Z,3.40
2018-09-22T08:17:03.985Z,3.40
2018-09-22T08:19:32.449Z,3.00
2018-09-22T08:22:00.938Z,3.40
2018-09-22T08:24:29.416Z,3.50
2018-09-22T08:26:57.881Z,3.03
2018-09-22T08:29:26.360Z,4.03
2018-09-22T08:31:54.943Z,3.47
2018-09-22T08:34:23.437Z,3.30
2018-09-22T08:36:51.996Z,3.03
2018-09-22T08:39:20.434Z,2.93
2018-09-22T08:41:48.926Z,3.10
2018-09-22T08:44:17.393Z,3.33
2018-09-22T08:46:45.866Z,2.93
2018-09-22T08:49:14.332Z,3.30
2018-09-22T08:51:42.854Z,3.10
2018-09-22T08:54:11.351Z,3.13
2018-09-22T08:56:39.826Z,3.43
2018-09-22T08:59:08.324Z,3.30
2018-09-22T09:01:36.904Z,3.07
2018-09-22T09:04:05.440Z,2.90
2018-09-22T09:06:33.906Z,3.67
2018-09-22T09:09:02.413Z,3.53
2018-09-22T09:11:30.939Z,3.00
2018-09-22T09:13:59.358Z,3.57
2018-09-22T09:16:27.829Z,2.87
2018-09-22T09:18:56.306Z,3.30
2018-09-22T09:21:24.788Z,3.20
2018-09-22T09:23:53.252Z,2.93
2018-09-22T09:26:22.482Z,3.17
2018-09-22T09:28:51.130Z,2.83
2018-09-22T09:31:19.933Z,3.27
2018-09-22T09:33:49.221Z,3.37
2018-09-22T09:36:17.911Z,3.37
2018-09-22T09:38:46.356Z,3.83
2018-09-22T09:41:14.997Z,3.23
2018-09-22T09:43:43.495Z,3.80
2018-09-22T09:46:11.884Z,3.60
2018-09-22T09:48:46.951Z,3.30
2018-09-22T09:51:15.417Z,3.63
2018-09-22T09:53:43.886Z,3.17
2018-09-22T09:56:12.446Z,3.20
2018-09-22T09:58:40.929Z,3.53
2018-09-22T10:01:09.397Z,3.80
2018-09-22T10:03:37.833Z,3.47
2018-09-22T10:06:06.371Z,3.20
2018-09-22T10:08:34.826Z,2.97
2018-09-22T10:11:03.282Z,3.30
2018-09-22T10:13:31.760Z,3.13
2018-09-22T10:16:00.365Z,3.37
2018-09-22T10:18:28.845Z,3.50
2018-09-22T10:20:57.388Z,2.90
2018-09-22T10:23:25.909Z,2.73
2018-09-22T10:25:54.382Z,2.67
2018-09-22T10:28:22.878Z,3.30
2018-09-22T10:30:51.317Z,3.03
2018-09-22T10:33:19.766Z,2.93
2018-09-22T10:35:48.254Z,3.00
2018-09-22T10:38:17.511Z,3.47
2018-09-22T10:40:45.970Z,3.37
2018-09-22T10:43:14.513Z,2.90
2018-09-22T10:45:42.989Z,3.07
2018-09-22T10:48:11.477Z,3.20
2018-09-22T10:50:39.989Z,3.73
2018-09-22T10:53:08.519Z,3.50
2018-09-22T10:55:37.016Z,3.60
2018-09-22T10:58:05.546Z,3.93
2018-09-22T11:00:34.027Z,2.90
2018-09-22T11:03:02.473Z,3.17
2018-09-22T11:05:31.004Z,3.73
2018-09-22T11:07:59.525Z,4.80
2018-09-22T11:10:28.025Z,12.60
2018-09-22T11:12:56.557Z,5.40
2018-09-22T11:15:25.894Z,15.60
2018-09-22T11:17:54.373Z,3.80
2018-09-22T11:20:23.095Z,3.80
2018-09-22T11:22:51.648Z,3.37
2018-09-22T11:25:20.164Z,4.43
2018-09-22T11:27:48.611Z,3.80
2018-09-22T11:30:17.081Z,3.30
2018-09-22T11:32:45.642Z,2.77
2018-09-22T11:35:16.230Z,2.53
2018-09-22T11:37:44.684Z,2.10
2018-09-22T11:40:13.218Z,2.10
2018-09-22T11:42:41.702Z,1.73
2018-09-22T11:45:10.224Z,2.43
2018-09-22T11:47:38.708Z,1.90
2018-09-22T11:50:07.266Z,2.20
2018-09-22T11:52:35.742Z,1.80
2018-09-22T11:55:04.270Z,2.37
2018-09-22T11:57:32.728Z,2.27
2018-09-22T12:00:01.328Z,1.87
2018-09-22T12:02:29.821Z,2.47
2018-09-22T12:04:58.491Z,1.93
2018-09-22T12:07:27.020Z,1.93
2018-09-22T12:09:55.446Z,2.13
2018-09-22T12:12:23.939Z,2.10
2018-09-22T12:14:52.529Z,2.50
2018-09-22T12:17:21.022Z,2.20
2018-09-22T12:19:49.501Z,1.80
2018-09-22T12:22:18.026Z,2.50
2018-09-22T12:24:46.507Z,2.30
2018-09-22T12:27:15.020Z,2.40
2018-09-22T12:29:43.507Z,2.47
2018-09-22T12:32:11.937Z,2.60
2018-09-22T12:34:40.383Z,2.43
2018-09-22T12:37:08.867Z,2.40
2018-09-22T12:39:37.388Z,2.20
2018-09-22T12:42:05.943Z,2.40
2018-09-22T12:44:34.432Z,2.13
2018-09-22T12:47:02.905Z,2.77
2018-09-22T12:49:31.328Z,2.20
2018-09-22T12:51:59.775Z,2.23
2018-09-22T12:54:28.234Z,2.07
2018-09-22T12:56:57.031Z,2.00
2018-09-22T12:59:25.746Z,1.97
2018-09-22T13:01:54.222Z,2.30
2018-09-22T13:04:22.696Z,2.30
2018-09-22T13:06:51.159Z,2.13
2018-09-22T13:09:19.651Z,2.13
2018-09-22T13:11:48.109Z,2.20
2018-09-22T13:14:16.535Z,2.10
2018-09-22T13:16:44.987Z,2.10
2018-09-22T13:19:13.437Z,2.17
2018-09-22T13:21:41.939Z,2.30
2018-09-22T13:24:10.428Z,2.67
2018-09-22T13:26:38.907Z,4.30
2018-09-22T13:29:07.431Z,4.10
2018-09-22T13:31:36.023Z,4.20
2018-09-22T13:34:04.645Z,4.60
2018-09-22T13:36:33.125Z,3.17
2018-09-22T13:39:01.612Z,3.77
2018-09-22T13:41:30.085Z,4.50
2018-09-22T13:43:58.607Z,4.43
2018-09-22T13:46:27.067Z,4.93
2018-09-22T13:48:55.568Z,3.80
2018-09-22T13:51:24.040Z,4.33
2018-09-22T13:53:52.507Z,3.53
2018-09-22T13:56:21.030Z,3.90
2018-09-22T13:58:49.549Z,3.63
2018-09-22T14:01:18.051Z,3.13
2018-09-22T14:03:46.550Z,3.40
2018-09-22T14:06:15.058Z,2.67
2018-09-22T14:08:43.509Z,2.70
2018-09-22T14:11:12.037Z,2.80
2018-09-22T14:13:40.574Z,2.47
2018-09-22T14:16:09.087Z,2.40
2018-09-22T14:18:37.572Z,2.77
2018-09-22T14:21:06.056Z,1.90
2018-09-22T14:23:34.523Z,2.67
2018-09-22T14:26:03.016Z,2.67
2018-09-22T14:28:31.487Z,2.00
2018-09-22T14:30:59.962Z,1.77
2018-09-22T14:33:28.426Z,2.00
2018-09-22T14:35:56.906Z,1.83
2018-09-22T14:38:25.342Z,1.77
2018-09-22T14:40:53.825Z,2.10
2018-09-22T14:43:22.289Z,2.00
2018-09-22T14:45:50.754Z,2.37
2018-09-22T14:48:19.214Z,2.20
2018-09-22T14:50:47.680Z,2.07
2018-09-22T14:53:16.133Z,1.90
2018-09-22T14:55:44.643Z,2.30
2018-09-22T14:58:13.054Z,2.30
2018-09-22T15:00:41.545Z,2.67
2018-09-22T15:03:10.013Z,2.20
2018-09-22T15:05:38.473Z,2.80
2018-09-22T15:08:07.132Z,2.53
2018-09-22T15:10:35.608Z,3.10
2018-09-22T15:13:04.075Z,3.03
2018-09-22T15:15:32.545Z,2.60
2018-09-22T15:18:01.004Z,2.40
2018-09-22T15:20:29.521Z,3.00
2018-09-22T15:22:58.050Z,3.23
2018-09-22T15:25:26.559Z,3.10
2018-09-22T15:27:55.034Z,3.60
2018-09-22T15:30:23.539Z,3.97
2018-09-22T15:32:51.962Z,4.30
2018-09-22T15:35:20.384Z,3.40
2018-09-22T15:37:48.860Z,3.23
2018-09-22T15:40:17.325Z,2.83
2018-09-22T15:42:45.747Z,2.50
2018-09-22T15:45:14.166Z,2.67
2018-09-22T15:47:42.625Z,2.77
2018-09-22T15:50:11.112Z,2.60
2018-09-22T15:52:39.566Z,2.80
2018-09-22T15:55:08.184Z,2.67
2018-09-22T15:57:36.666Z,2.70
2018-09-22T16:00:05.166Z,2.60
2018-09-22T16:02:33.648Z,2.80
2018-09-22T16:05:02.088Z,2.40
2018-09-22T16:07:30.598Z,2.43
2018-09-22T16:09:59.056Z,2.87
2018-09-22T16:12:27.538Z,2.30
2018-09-22T16:14:56.030Z,2.20
2018-09-22T16:17:24.493Z,2.73
2018-09-22T16:19:52.910Z,2.30
2018-09-22T16:22:21.337Z,2.80
2018-09-22T16:24:49.796Z,2.40
2018-09-22T16:27:18.355Z,2.47
2018-09-22T16:29:46.729Z,2.43
2018-09-22T16:32:15.286Z,2.57
2018-09-22T16:34:43.769Z,2.77
2018-09-22T16:37:12.289Z,2.30
2018-09-22T16:39:40.761Z,2.40
2018-09-22T16:42:09.205Z,2.43
2018-09-22T16:44:37.655Z,2.40
2018-09-22T16:47:06.191Z,2.47
2018-09-22T16:49:34.675Z,2.53
2018-09-22T16:52:03.171Z,3.07
2018-09-22T16:54:31.681Z,2.70
2018-09-22T16:57:00.211Z,2.77
2018-09-22T16:59:28.655Z,2.73
2018-09-22T17:01:57.146Z,3.13
2018-09-22T17:04:25.633Z,3.17
2018-09-22T17:06:54.109Z,2.60
2018-09-22T17:09:22.691Z,2.97
2018-09-22T17:11:51.150Z,2.93
2018-09-22T17:14:19.632Z,2.33
2018-09-22T17:16:48.173Z,3.00
2018-09-22T17:19:16.628Z,3.10
2018-09-22T17:21:45.141Z,2.47
2018-09-22T17:24:13.588Z,2.90
2018-09-22T17:26:42.098Z,2.17
2018-09-22T17:29:10.548Z,2.53
2018-09-22T17:31:38.995Z,2.30
2018-09-22T17:34:07.506Z,2.73
2018-09-22T17:36:35.982Z,2.50
2018-09-22T17:39:06.172Z,2.73
2018-09-22T17:41:34.639Z,2.90
2018-09-22T17:44:03.178Z,2.40
2018-09-22T17:46:31.746Z,2.40
2018-09-22T17:49:00.382Z,2.87
2018-09-22T17:51:28.880Z,3.30
2018-09-22T17:53:57.347Z,2.83
2018-09-22T17:56:25.816Z,2.73
2018-09-22T17:58:54.256Z,2.50
2018-09-22T18:01:22.748Z,2.40
2018-09-22T18:03:51.239Z,2.57
2018-09-22T18:06:19.752Z,2.40
2018-09-22T18:08:48.217Z,2.90
2018-09-22T18:11:16.698Z,2.87
2018-09-22T18:13:45.165Z,3.23
2018-09-22T18:16:13.798Z,3.30
2018-09-22T18:18:42.260Z,2.83
2018-09-22T18:21:11.748Z,3.80
2018-09-22T18:23:40.233Z,4.13
2018-09-22T18:26:08.999Z,3.83
2018-09-22T18:28:37.461Z,3.83
2018-09-22T18:31:05.976Z,3.73
2018-09-22T18:33:34.452Z,3.47
2018-09-22T18:36:02.957Z,3.20
2018-09-22T18:38:31.588Z,3.43
2018-09-22T18:41:00.034Z,3.70
2018-09-22T18:43:28.484Z,3.60
2018-09-22T18:45:57.004Z,9.47
2018-09-22T18:48:25.470Z,6.30
2018-09-22T18:50:53.901Z,4.43
2018-09-22T18:53:22.420Z,5.00
2018-09-22T18:55:50.945Z,6.37
2018-09-22T18:58:19.431Z,6.63
2018-09-22T19:00:47.887Z,4.10
2018-09-22T19:03:16.347Z,4.23
2018-09-22T19:05:44.791Z,4.73
2018-09-22T19:08:13.363Z,4.33
2018-09-22T19:10:41.903Z,3.63
2018-09-22T19:13:12.397Z,4.53
2018-09-22T19:16:00.770Z,4.43
2018-09-22T19:18:35.910Z,4.03
2018-09-22T19:21:22.411Z,4.80
2018-09-22T19:23:57.411Z,4.90
2018-09-22T19:26:30.144Z,4.53
2018-09-22T19:29:36.688Z,4.87
2018-09-22T19:32:08.161Z,5.17
2018-09-22T19:34:42.041Z,4.70
2018-09-22T19:37:15.581Z,6.37
2018-09-22T19:39:48.526Z,7.37
2018-09-22T19:42:21.635Z,8.40
2018-09-22T19:44:57.017Z,7.73
2018-09-22T19:47:35.690Z,8.80
2018-09-22T19:50:07.043Z,9.50
2018-09-22T19:52:39.533Z,9.80
2018-09-22T19:55:08.079Z,10.50
2018-09-22T19:57:36.688Z,10.73
2018-09-22T20:00:05.803Z,10.93
2018-09-22T20:02:34.252Z,10.70
2018-09-22T20:05:02.716Z,11.33
2018-09-22T20:07:31.495Z,9.93
2018-09-22T20:09:59.975Z,10.07
2018-09-22T20:12:28.424Z,9.73
2018-09-22T20:14:57.041Z,8.73
2018-09-22T20:17:25.670Z,6.20
2018-09-22T20:19:54.394Z,5.13
2018-09-22T20:22:23.011Z,5.73
2018-09-22T20:24:51.436Z,5.87
2018-09-22T20:27:19.906Z,5.43
2018-09-22T20:29:48.384Z,5.30
2018-09-22T20:32:16.853Z,5.80
2018-09-22T20:34:45.309Z,5.73
2018-09-22T20:37:13.800Z,5.43
2018-09-22T20:39:42.287Z,5.77
2018-09-22T20:42:10.737Z,5.43
2018-09-22T20:44:39.204Z,5.63
2018-09-22T20:47:07.675Z,4.73
2018-09-22T20:49:36.167Z,5.00
2018-09-22T20:52:04.728Z,4.60
2018-09-22T20:54:33.227Z,4.43
2018-09-22T20:57:01.664Z,5.10
2018-09-22T20:59:30.185Z,4.83
2018-09-22T21:01:58.649Z,4.93
2018-09-22T21:04:27.168Z,4.33
2018-09-22T21:06:55.651Z,4.63
2018-09-22T21:09:24.129Z,4.50
2018-09-22T21:11:52.573Z,4.50
2018-09-22T21:14:21.033Z,4.60
2018-09-22T21:16:49.476Z,5.13
2018-09-22T21:19:17.929Z,5.20
2018-09-22T21:21:46.410Z,5.13
2018-09-22T21:24:14.958Z,5.73
2018-09-22T21:26:43.401Z,5.50
2018-09-22T21:29:11.890Z,5.00
2018-09-22T21:31:40.362Z,4.80
2018-09-22T21:34:08.986Z,4.90
2018-09-22T21:36:37.523Z,5.60
2018-09-22T21:39:08.316Z,5.50
2018-09-22T21:41:36.876Z,5.77
2018-09-22T21:44:05.504Z,6.33
2018-09-22T21:46:33.935Z,5.40
2018-09-22T21:49:02.414Z,5.60
2018-09-22T21:51:30.865Z,5.53
2018-09-22T21:53:59.354Z,6.03
2018-09-22T21:56:27.818Z,5.27
2018-09-22T21:58:56.338Z,5.70
2018-09-22T22:01:30.204Z,6.37
2018-09-22T22:03:58.674Z,6.97
2018-09-22T22:06:27.153Z,6.70
2018-09-22T22:08:55.591Z,7.37
2018-09-22T22:11:24.115Z,6.67
2018-09-22T22:13:52.515Z,7.13
2018-09-22T22:16:21.057Z,6.63
2018-09-22T22:18:49.544Z,7.17
2018-09-22T22:21:18.001Z,7.60
2018-09-22T22:23:46.465Z,7.00
2018-09-22T22:26:14.912Z,6.53
2018-09-22T22:28:43.337Z,7.10
2018-09-22T22:31:11.810Z,7.30
2018-09-22T22:33:40.253Z,7.40
2018-09-22T22:36:08.714Z,6.90
2018-09-22T22:38:37.183Z,7.97
2018-09-22T22:41:05.925Z,8.20
2018-09-22T22:43:34.400Z,7.87
2018-09-22T22:46:02.850Z,8.10
2018-09-22T22:48:31.328Z,7.93
2018-09-22T22:50:59.807Z,8.73
2018-09-22T22:53:28.257Z,9.07
2018-09-22T22:55:56.700Z,9.40
2018-09-22T22:58:25.153Z,8.83
2018-09-22T23:00:53.645Z,9.00
2018-09-22T23:03:22.147Z,9.33
2018-09-22T23:05:50.608Z,9.43
2018-09-22T23:08:19.082Z,12.13
2018-09-22T23:10:47.659Z,11.00
2018-09-22T23:13:16.089Z,10.40
2018-09-22T23:15:44.548Z,11.03
2018-09-22T23:18:13.013Z,11.40
2018-09-22T23:20:41.475Z,12.13
2018-09-22T23:23:09.945Z,12.40
2018-09-22T23:25:38.394Z,13.10
2018-09-22T23:28:06.856Z,13.50
2018-09-22T23:30:35.333Z,14.90
2018-09-22T23:33:03.786Z,16.33
2018-09-22T23:35:32.264Z,13.80
2018-09-22T23:38:00.731Z,15.00
2018-09-22T23:40:29.173Z,15.70
2018-09-22T23:42:57.644Z,14.70
2018-09-22T23:45:26.110Z,13.53
2018-09-22T23:47:54.538Z,14.17
2018-09-22T23:50:23.089Z,14.73
2018-09-22T23:52:51.605Z,14.10
2018-09-22T23:55:20.126Z,16.23
2018-09-22T23:57:48.574Z,15.30
